Time;durP1;ratioP1;P1;durP2;ratioP2;P2;SDS_P1;SDS_P2;PMS_P1;PMS_P2;Temp;Humidity;BMP_temperature;BMP_pressure;BME280_temperature;BME280_humidity;BME280_pressure;Samples;Min_cycle;Max_cycle;Signal;HPM_P1;HPM_P2
2023/01/03 00:01:46;;;;;;;13.53;3.03;;;;;;;;;;5111923;28;20244;-79
2023/01/03 00:04:13;;;;;;;13.63;3.67;;;;;;;;;;5111510;28;20253;-79
2023/01/03 00:06:41;;;;;;;14.33;3.20;;;;;;;;;;5110996;28;20193;-79
2023/01/03 00:09:10;;;;;;;14.23;3.43;;;;;;;;;;5110972;28;20232;-79
2023/01/03 00:14:32;;;;;;;11.90;3.60;;;;;;;;;;5111414;28;20201;-78
2023/01/03 00:17:00;;;;;;;9.63;3.13;;;;;;;;;;5111550;28;20197;-79
2023/01/03 00:19:29;;;;;;;15.00;3.13;;;;;;;;;;5111890;28;20234;-78
2023/01/03 00:21:56;;;;;;;16.90;3.23;;;;;;;;;;5110587;28;20662;-79
2023/01/03 00:24:23;;;;;;;16.30;3.30;;;;;;;;;;5111157;28;20229;-79
2023/01/03 00:26:52;;;;;;;13.53;3.77;;;;;;;;;;5111890;28;20236;-78
2023/01/03 00:29:19;;;;;;;12.30;3.37;;;;;;;;;;5111412;28;20232;-78
2023/01/03 00:31:46;;;;;;;11.07;3.13;;;;;;;;;;5111369;28;20224;-79
2023/01/03 00:34:14;;;;;;;14.10;3.03;;;;;;;;;;5111224;28;20197;-77
2023/01/03 00:36:41;;;;;;;14.17;3.00;;;;;;;;;;5110953;28;20236;-79
2023/01/03 00:39:10;;;;;;;15.13;3.23;;;;;;;;;;5111355;28;20224;-79
2023/01/03 00:41:38;;;;;;;17.47;3.50;;;;;;;;;;5115722;28;20202;-78
2023/01/03 00:44:06;;;;;;;11.07;2.67;;;;;;;;;;5114930;28;20317;-79
2023/01/03 00:46:34;;;;;;;13.33;2.93;;;;;;;;;;5115174;28;20224;-79
2023/01/03 00:49:01;;;;;;;14.53;2.77;;;;;;;;;;5114780;28;20211;-78
2023/01/03 00:51:29;;;;;;;15.33;3.40;;;;;;;;;;5114590;28;20298;-79
2023/01/03 00:53:57;;;;;;;9.83;2.50;;;;;;;;;;5114893;28;20233;-78
2023/01/03 00:56:29;;;;;;;13.73;2.43;;;;;;;;;;5115018;28;20214;-79
2023/01/03 00:58:56;;;;;;;11.07;3.13;;;;;;;;;;5115314;28;20236;-78
2023/01/03 01:01:26;;;;;;;13.73;3.10;;;;;;;;;;5114654;28;20283;-79
2023/01/03 01:03:54;;;;;;;12.30;2.63;;;;;;;;;;5114102;28;20329;-79
2023/01/03 01:06:23;;;;;;;17.93;3.20;;;;;;;;;;5114541;28;20197;-78
2023/01/03 01:08:51;;;;;;;12.27;3.47;;;;;;;;;;5114532;28;20225;-78
2023/01/03 01:11:18;;;;;;;12.03;3.33;;;;;;;;;;5115044;28;20305;-79
2023/01/03 01:13:46;;;;;;;15.27;3.33;;;;;;;;;;5114375;28;20308;-79
2023/01/03 01:16:15;;;;;;;13.83;2.90;;;;;;;;;;5114866;28;20228;-78
2023/01/03 01:18:45;;;;;;;13.57;3.20;;;;;;;;;;5113960;28;20231;-79
2023/01/03 01:21:13;;;;;;;17.57;2.87;;;;;;;;;;5114341;28;20627;-79
2023/01/03 01:23:41;;;;;;;9.63;2.97;;;;;;;;;;5114686;28;20261;-79
2023/01/03 01:26:11;;;;;;;14.20;2.97;;;;;;;;;;5114123;28;20226;-79
2023/01/03 01:28:38;;;;;;;14.13;2.60;;;;;;;;;;5114417;28;20229;-79
2023/01/03 01:31:06;;;;;;;15.07;2.83;;;;;;;;;;5113946;28;20246;-79
2023/01/03 01:33:34;;;;;;;9.47;2.70;;;;;;;;;;5113909;28;20233;-78
2023/01/03 01:36:07;;;;;;;12.93;2.83;;;;;;;;;;5114007;28;20249;-79
2023/01/03 01:38:34;;;;;;;15.47;3.27;;;;;;;;;;5113883;28;20228;-79
2023/01/03 01:41:01;;;;;;;12.73;3.10;;;;;;;;;;5114047;28;20225;-79
2023/01/03 01:46:19;;;;;;;13.20;2.67;;;;;;;;;;5114076;28;20284;-80
2023/01/03 01:48:46;;;;;;;15.83;3.27;;;;;;;;;;5113550;28;20659;-79
2023/01/03 01:51:15;;;;;;;19.30;3.60;;;;;;;;;;5113879;28;20245;-79
2023/01/03 01:53:43;;;;;;;8.90;2.87;;;;;;;;;;5113541;28;20273;-79
2023/01/03 01:56:14;;;;;;;13.83;2.77;;;;;;;;;;5113899;28;20193;-78
2023/01/03 01:58:42;;;;;;;10.93;2.53;;;;;;;;;;5113772;28;20221;-78
2023/01/03 02:01:11;;;;;;;13.47;2.63;;;;;;;;;;5113640;28;20217;-78
2023/01/03 02:03:39;;;;;;;9.53;2.60;;;;;;;;;;5113273;28;20278;-79
2023/01/03 02:06:07;;;;;;;12.40;3.00;;;;;;;;;;5113706;28;20255;-78
2023/01/03 02:08:36;;;;;;;13.47;2.60;;;;;;;;;;5113142;28;20824;-78
2023/01/03 02:11:18;;;;;;;13.73;2.73;;;;;;;;;;5113292;28;20718;-79
2023/01/03 02:13:48;;;;;;;11.83;2.60;;;;;;;;;;5110568;28;20225;-78
2023/01/03 02:16:21;;;;;;;16.90;2.80;;;;;;;;;;5113368;28;20251;-80
2023/01/03 02:18:52;;;;;;;12.70;3.20;;;;;;;;;;5113566;28;20236;-80
2023/01/03 02:21:37;;;;;;;11.80;3.00;;;;;;;;;;5112922;28;20301;-80
2023/01/03 02:24:19;;;;;;;13.10;4.10;;;;;;;;;;5113000;28;20797;-80
2023/01/03 02:26:52;;;;;;;11.20;2.97;;;;;;;;;;5110146;28;20198;-80
2023/01/03 02:29:27;;;;;;;10.33;3.53;;;;;;;;;;5113332;28;20221;-80
2023/01/03 02:32:00;;;;;;;18.47;3.50;;;;;;;;;;5112275;28;20217;-79
2023/01/03 02:34:30;;;;;;;13.17;3.27;;;;;;;;;;5113189;28;20246;-78
2023/01/03 02:37:02;;;;;;;16.33;3.93;;;;;;;;;;5113053;28;20198;-80
2023/01/03 02:39:33;;;;;;;14.10;3.20;;;;;;;;;;5112891;28;20243;-80
2023/01/03 02:44:52;;;;;;;15.37;3.23;;;;;;;;;;5112904;28;20228;-80
2023/01/03 02:47:22;;;;;;;13.27;3.17;;;;;;;;;;5098685;28;20238;-80
2023/01/03 02:49:51;;;;;;;12.97;3.30;;;;;;;;;;5112228;28;20688;-80
2023/01/03 02:52:20;;;;;;;15.27;3.00;;;;;;;;;;5112120;28;20198;-80
2023/01/03 02:54:50;;;;;;;13.13;2.93;;;;;;;;;;5112639;28;20947;-80
2023/01/03 02:57:18;;;;;;;12.20;3.20;;;;;;;;;;5112436;28;20218;-80
2023/01/03 02:59:47;;;;;;;15.13;3.00;;;;;;;;;;5112154;28;20243;-78
2023/01/03 03:02:16;;;;;;;12.10;2.97;;;;;;;;;;5112198;28;20222;-80
2023/01/03 03:04:45;;;;;;;16.13;3.00;;;;;;;;;;5111755;28;20257;-80
2023/01/03 03:07:16;;;;;;;15.33;3.40;;;;;;;;;;5112328;28;20232;-80
2023/01/03 03:15:15;;;;;;;10.43;3.07;;;;;;;;;;5048474;28;20196;-80
2023/01/03 03:17:43;;;;;;;12.00;3.43;;;;;;;;;;5049077;28;20723;-79
2023/01/03 03:25:48;;;;;;;11.13;3.23;;;;;;;;;;5049014;28;20203;-80
2023/01/03 03:31:11;;;;;;;14.27;3.50;;;;;;;;;;5013901;28;20226;-80
2023/01/03 03:33:42;;;;;;;13.43;3.43;;;;;;;;;;5029011;28;20294;-80
2023/01/03 03:36:15;;;;;;;12.70;3.00;;;;;;;;;;5029301;28;20225;-80
2023/01/03 03:38:43;;;;;;;14.17;3.70;;;;;;;;;;5028543;28;20747;-80
2023/01/03 03:46:52;;;;;;;12.40;3.17;;;;;;;;;;4969687;28;20242;-80
2023/01/03 03:49:40;;;;;;;13.77;3.23;;;;;;;;;;4970369;28;20778;-80
2023/01/03 03:52:11;;;;;;;10.60;3.57;;;;;;;;;;4996863;28;20200;-80
2023/01/03 03:54:39;;;;;;;11.50;3.17;;;;;;;;;;5028807;28;20283;-80
2023/01/03 03:57:11;;;;;;;10.27;3.90;;;;;;;;;;5028729;28;20714;-79
2023/01/03 03:59:39;;;;;;;14.07;3.50;;;;;;;;;;5028629;28;20192;-80
2023/01/03 04:02:08;;;;;;;16.23;4.33;;;;;;;;;;5028466;28;20231;-80
2023/01/03 04:04:37;;;;;;;13.27;3.53;;;;;;;;;;5028655;28;20263;-80
2023/01/03 04:07:05;;;;;;;12.93;3.57;;;;;;;;;;5028539;28;20193;-80
2023/01/03 04:09:33;;;;;;;13.73;3.83;;;;;;;;;;5028410;28;20701;-80
2023/01/03 04:12:00;;;;;;;13.10;3.77;;;;;;;;;;5028610;28;20247;-80
2023/01/03 04:14:28;;;;;;;12.03;3.77;;;;;;;;;;5029143;28;20699;-80
2023/01/03 04:16:55;;;;;;;12.47;3.53;;;;;;;;;;5032613;28;20602;-80
2023/01/03 04:19:22;;;;;;;13.43;3.60;;;;;;;;;;5032722;28;20243;-79
2023/01/03 04:21:49;;;;;;;14.20;3.90;;;;;;;;;;5032334;28;20630;-80
2023/01/03 04:24:19;;;;;;;11.20;4.20;;;;;;;;;;5088413;28;20308;-80
2023/01/03 04:26:47;;;;;;;12.60;4.17;;;;;;;;;;5115777;28;20554;-81
2023/01/03 04:29:15;;;;;;;13.70;4.30;;;;;;;;;;5115296;28;20560;-80
2023/01/03 04:31:42;;;;;;;14.10;3.97;;;;;;;;;;5115123;28;20229;-79
2023/01/03 04:34:10;;;;;;;13.23;4.20;;;;;;;;;;5115704;28;20761;-80
2023/01/03 04:36:37;;;;;;;14.97;4.47;;;;;;;;;;5114980;28;20217;-80
2023/01/03 04:39:04;;;;;;;14.73;4.00;;;;;;;;;;5115574;28;20194;-80
2023/01/03 04:41:31;;;;;;;17.50;4.37;;;;;;;;;;5114928;28;20228;-80
2023/01/03 04:44:03;;;;;;;14.57;4.03;;;;;;;;;;5114954;28;20240;-77
2023/01/03 04:46:31;;;;;;;14.53;3.77;;;;;;;;;;5114875;28;20201;-78
2023/01/03 04:48:58;;;;;;;13.33;3.87;;;;;;;;;;5114894;28;20229;-78
2023/01/03 04:51:25;;;;;;;13.90;3.90;;;;;;;;;;5115051;28;20236;-77
2023/01/03 04:53:52;;;;;;;10.53;3.90;;;;;;;;;;5115209;28;20260;-78
2023/01/03 04:56:24;;;;;;;17.77;3.80;;;;;;;;;;5114335;28;20240;-77
2023/01/03 04:58:51;;;;;;;12.23;3.60;;;;;;;;;;5114950;28;20193;-77
2023/01/03 05:01:20;;;;;;;12.77;3.97;;;;;;;;;;5114841;28;20237;-79
2023/01/03 05:03:47;;;;;;;12.43;3.73;;;;;;;;;;5114928;28;20228;-79
2023/01/03 05:06:15;;;;;;;13.70;4.00;;;;;;;;;;5114903;28;20281;-79
2023/01/03 05:08:44;;;;;;;12.10;4.10;;;;;;;;;;5114682;28;20217;-78
2023/01/03 05:11:11;;;;;;;13.40;3.90;;;;;;;;;;5114339;28;20293;-79
2023/01/03 05:13:39;;;;;;;15.17;4.03;;;;;;;;;;5114451;28;20221;-79
2023/01/03 05:16:06;;;;;;;13.07;3.67;;;;;;;;;;5114342;28;20288;-78
2023/01/03 05:18:35;;;;;;;13.97;4.60;;;;;;;;;;5114422;28;20669;-79
2023/01/03 05:26:38;;;;;;;16.00;4.37;;;;;;;;;;5113423;28;20201;-78
2023/01/03 05:29:05;;;;;;;7.93;3.63;;;;;;;;;;5114511;28;20664;-77
2023/01/03 05:31:32;;;;;;;20.33;4.77;;;;;;;;;;5114176;28;20682;-77
2023/01/03 05:34:01;;;;;;;15.73;4.10;;;;;;;;;;5114343;28;20193;-77
2023/01/03 05:36:28;;;;;;;12.47;4.07;;;;;;;;;;5114135;28;20190;-78
2023/01/03 05:38:55;;;;;;;14.67;4.30;;;;;;;;;;5113635;28;20633;-78
2023/01/03 05:44:04;;;;;;;17.53;4.47;;;;;;;;;;5100907;28;20205;-79
2023/01/03 05:46:31;;;;;;;17.13;4.40;;;;;;;;;;5113575;28;20758;-79
2023/01/03 05:48:58;;;;;;;13.83;4.17;;;;;;;;;;5114282;28;20235;-80
2023/01/03 05:51:27;;;;;;;12.47;4.00;;;;;;;;;;5113664;28;20625;-80
2023/01/03 05:53:54;;;;;;;14.33;4.70;;;;;;;;;;5114152;28;20280;-80
2023/01/03 05:56:21;;;;;;;12.87;4.53;;;;;;;;;;5113636;28;20240;-80
2023/01/03 05:58:48;;;;;;;15.40;4.60;;;;;;;;;;5113820;28;20656;-79
2023/01/03 06:01:16;;;;;;;11.70;4.57;;;;;;;;;;5113552;28;20198;-80
2023/01/03 06:03:44;;;;;;;10.90;4.50;;;;;;;;;;5107199;28;20229;-79
2023/01/03 06:06:15;;;;;;;11.80;4.03;;;;;;;;;;5112190;28;20712;-80
2023/01/03 06:08:46;;;;;;;11.13;4.20;;;;;;;;;;5112829;28;20194;-80
2023/01/03 06:11:14;;;;;;;12.97;4.63;;;;;;;;;;5113773;28;20243;-78
2023/01/03 06:13:42;;;;;;;8.10;3.93;;;;;;;;;;5113308;28;20722;-79
2023/01/03 06:18:55;;;;;;;12.47;4.50;;;;;;;;;;5113060;28;20211;-78
2023/01/03 06:21:22;;;;;;;11.90;3.97;;;;;;;;;;5111187;28;20221;-78
2023/01/03 06:23:51;;;;;;;10.23;3.87;;;;;;;;;;5101636;28;20722;-78
2023/01/03 06:26:19;;;;;;;13.33;4.17;;;;;;;;;;5092827;28;20775;-79
2023/01/03 06:28:46;;;;;;;10.60;3.63;;;;;;;;;;5111839;28;20236;-79
2023/01/03 06:31:14;;;;;;;15.17;4.30;;;;;;;;;;5113104;28;20636;-79
2023/01/03 06:33:41;;;;;;;16.93;4.03;;;;;;;;;;5113033;28;20243;-78
2023/01/03 06:36:09;;;;;;;14.03;3.80;;;;;;;;;;5112319;28;20629;-78
2023/01/03 06:38:37;;;;;;;16.87;3.73;;;;;;;;;;5111498;28;20248;-79
2023/01/03 06:41:06;;;;;;;11.07;3.43;;;;;;;;;;5112827;28;20229;-80
2023/01/03 06:43:33;;;;;;;14.97;3.50;;;;;;;;;;5108025;28;20222;-78
2023/01/03 06:54:20;;;;;;;12.37;3.77;;;;;;;;;;5112211;28;20724;-78
2023/01/03 06:56:49;;;;;;;11.43;4.13;;;;;;;;;;5112616;28;20190;-79
2023/01/03 06:59:16;;;;;;;12.30;4.20;;;;;;;;;;5112254;28;20289;-79
2023/01/03 07:01:44;;;;;;;12.73;3.80;;;;;;;;;;5112581;28;20226;-79
2023/01/03 07:04:11;;;;;;;8.10;3.77;;;;;;;;;;5112583;28;20702;-79
2023/01/03 07:06:38;;;;;;;12.23;3.77;;;;;;;;;;5112361;28;20256;-80
2023/01/03 07:09:05;;;;;;;11.97;3.80;;;;;;;;;;5112662;28;20197;-79
2023/01/03 07:11:32;;;;;;;10.17;3.80;;;;;;;;;;5112289;28;20889;-79
2023/01/03 07:14:02;;;;;;;13.23;3.70;;;;;;;;;;5112389;28;20252;-80
2023/01/03 07:16:30;;;;;;;11.30;4.10;;;;;;;;;;5112080;28;20209;-79
2023/01/03 07:18:58;;;;;;;15.00;4.37;;;;;;;;;;5112450;28;20289;-79
2023/01/03 07:21:25;;;;;;;15.00;4.30;;;;;;;;;;5112109;28;20248;-78
2023/01/03 07:23:53;;;;;;;14.33;4.30;;;;;;;;;;5112148;28;20284;-79
2023/01/03 07:26:23;;;;;;;14.03;4.53;;;;;;;;;;5112078;28;20234;-79
2023/01/03 07:28:50;;;;;;;14.97;3.97;;;;;;;;;;5111910;28;20202;-79
2023/01/03 07:31:19;;;;;;;12.47;3.90;;;;;;;;;;5111865;28;20605;-79
2023/01/03 07:33:46;;;;;;;14.13;3.57;;;;;;;;;;5112709;28;20239;-80
2023/01/03 07:36:15;;;;;;;12.73;4.23;;;;;;;;;;5111657;28;20233;-80
2023/01/03 07:38:43;;;;;;;14.57;3.90;;;;;;;;;;5111648;28;20197;-79
2023/01/03 07:41:11;;;;;;;11.70;3.80;;;;;;;;;;5107786;28;20281;-79
2023/01/03 07:43:38;;;;;;;14.63;4.30;;;;;;;;;;5109654;28;20206;-79
2023/01/03 07:46:06;;;;;;;12.00;4.23;;;;;;;;;;5112969;28;20235;-79
2023/01/03 07:48:34;;;;;;;10.43;4.10;;;;;;;;;;5112131;28;20268;-78
2023/01/03 07:51:01;;;;;;;10.23;4.03;;;;;;;;;;5113348;28;20224;-79
2023/01/03 07:53:29;;;;;;;9.50;3.70;;;;;;;;;;5112400;28;20222;-80
2023/01/03 07:56:02;;;;;;;10.17;4.20;;;;;;;;;;5112022;28;20288;-80
2023/01/03 07:58:29;;;;;;;13.37;4.03;;;;;;;;;;5112188;28;20205;-80
2023/01/03 08:00:57;;;;;;;12.40;3.77;;;;;;;;;;5112383;28;20280;-80
2023/01/03 08:03:24;;;;;;;12.77;4.00;;;;;;;;;;5111877;28;20279;-80
2023/01/03 08:05:52;;;;;;;10.23;3.43;;;;;;;;;;5111531;28;20317;-80
2023/01/03 08:08:20;;;;;;;11.47;3.97;;;;;;;;;;5111611;28;20228;-80
2023/01/03 08:13:32;;;;;;;13.93;3.70;;;;;;;;;;5111695;28;20220;-80
2023/01/03 08:15:59;;;;;;;11.30;4.03;;;;;;;;;;5112412;28;20232;-79
2023/01/03 08:18:28;;;;;;;12.97;3.90;;;;;;;;;;5112113;28;20224;-79
2023/01/03 08:20:57;;;;;;;12.60;3.90;;;;;;;;;;5111416;28;20235;-80
2023/01/03 08:23:24;;;;;;;11.37;3.93;;;;;;;;;;5111319;28;20273;-80
2023/01/03 08:25:52;;;;;;;10.70;4.17;;;;;;;;;;5111559;28;20728;-80
2023/01/03 08:28:19;;;;;;;9.17;3.67;;;;;;;;;;5111566;28;20290;-80
2023/01/03 08:30:48;;;;;;;13.27;4.07;;;;;;;;;;5111611;28;20190;-80
2023/01/03 08:33:16;;;;;;;10.23;3.73;;;;;;;;;;5111513;28;20247;-80
2023/01/03 08:35:46;;;;;;;10.77;3.60;;;;;;;;;;5111474;28;20232;-79
2023/01/03 08:38:17;;;;;;;11.10;4.00;;;;;;;;;;5111438;28;20214;-79
2023/01/03 08:40:45;;;;;;;11.67;3.50;;;;;;;;;;5111842;28;20216;-79
2023/01/03 08:43:13;;;;;;;8.77;3.67;;;;;;;;;;5111721;28;20749;-80
2023/01/03 08:45:40;;;;;;;15.47;3.80;;;;;;;;;;5111297;28;20660;-79
2023/01/03 08:48:08;;;;;;;10.03;3.83;;;;;;;;;;5110714;28;20685;-77
2023/01/03 08:50:36;;;;;;;15.87;4.73;;;;;;;;;;5111587;28;20200;-79
2023/01/03 08:53:04;;;;;;;11.80;3.90;;;;;;;;;;5111344;28;20214;-79
2023/01/03 08:55:33;;;;;;;13.60;3.70;;;;;;;;;;5111584;28;20194;-79
2023/01/03 08:58:00;;;;;;;8.13;3.20;;;;;;;;;;5111349;28;20280;-78
2023/01/03 09:00:28;;;;;;;11.10;3.10;;;;;;;;;;5112218;28;20217;-78
2023/01/03 09:02:58;;;;;;;7.70;2.73;;;;;;;;;;5115002;28;20193;-78
2023/01/03 09:05:25;;;;;;;10.60;2.40;;;;;;;;;;5114737;28;20232;-77
2023/01/03 09:07:53;;;;;;;8.17;2.10;;;;;;;;;;5115404;28;20284;-77
2023/01/03 09:10:21;;;;;;;12.27;2.93;;;;;;;;;;5114883;28;20194;-78
2023/01/03 09:12:50;;;;;;;7.27;2.53;;;;;;;;;;5114803;28;20190;-77
2023/01/03 09:15:17;;;;;;;10.30;2.63;;;;;;;;;;5114848;28;20197;-78
2023/01/03 09:17:46;;;;;;;13.60;2.60;;;;;;;;;;5114541;28;20221;-77
2023/01/03 09:20:14;;;;;;;8.33;2.40;;;;;;;;;;5115128;28;20222;-79
2023/01/03 09:22:41;;;;;;;8.53;2.30;;;;;;;;;;5114589;28;20232;-78
2023/01/03 09:25:09;;;;;;;8.00;2.47;;;;;;;;;;5114489;28;20220;-80
2023/01/03 09:27:36;;;;;;;11.07;2.73;;;;;;;;;;5114809;28;20229;-79
2023/01/03 09:30:05;;;;;;;9.90;2.53;;;;;;;;;;5115087;28;20276;-79
2023/01/03 09:32:32;;;;;;;8.77;2.80;;;;;;;;;;5114224;28;20240;-80
2023/01/03 09:35:00;;;;;;;11.67;3.10;;;;;;;;;;5114296;28;20237;-79
2023/01/03 09:37:27;;;;;;;12.30;2.87;;;;;;;;;;5114565;28;20673;-79
2023/01/03 09:39:54;;;;;;;11.20;3.20;;;;;;;;;;5114480;28;20221;-79
2023/01/03 09:45:12;;;;;;;8.33;2.83;;;;;;;;;;5114678;28;20212;-79
2023/01/03 09:47:39;;;;;;;20.07;3.00;;;;;;;;;;5113748;28;20260;-79
2023/01/03 09:50:07;;;;;;;11.93;3.40;;;;;;;;;;5114139;28;20639;-79
2023/01/03 10:03:57;;;;;;;10.33;2.00;;;;;;;;;;5114134;28;20685;-79
2023/01/03 10:06:30;;;;;;;9.43;1.80;;;;;;;;;;5113665;28;20266;-78
2023/01/03 10:09:02;;;;;;;8.93;2.30;;;;;;;;;;5113629;28;20289;-78
2023/01/03 10:11:34;;;;;;;9.50;2.30;;;;;;;;;;5113722;28;20240;-78
2023/01/03 10:14:06;;;;;;;13.57;2.77;;;;;;;;;;5113382;28;20288;-79
2023/01/03 10:16:42;;;;;;;9.43;2.20;;;;;;;;;;5113374;28;20236;-79
2023/01/03 10:19:19;;;;;;;12.70;2.67;;;;;;;;;;5114073;28;20757;-79
2023/01/03 10:21:51;;;;;;;12.73;2.07;;;;;;;;;;5113558;28;20596;-79
2023/01/03 10:24:21;;;;;;;8.83;2.10;;;;;;;;;;5113238;28;20197;-78
2023/01/03 10:26:49;;;;;;;9.97;2.00;;;;;;;;;;5113256;28;20263;-79
2023/01/03 10:29:18;;;;;;;9.70;2.07;;;;;;;;;;5113308;28;20217;-79
2023/01/03 10:31:58;;;;;;;9.93;2.00;;;;;;;;;;5113568;28;20196;-77
2023/01/03 10:34:26;;;;;;;10.13;2.43;;;;;;;;;;5113259;28;20233;-79
2023/01/03 10:36:53;;;;;;;9.83;1.97;;;;;;;;;;5113414;28;20225;-78
2023/01/03 10:39:30;;;;;;;6.93;2.33;;;;;;;;;;5113095;28;20670;-78
2023/01/03 10:42:00;;;;;;;8.00;2.20;;;;;;;;;;5112924;28;20200;-79
2023/01/03 10:44:31;;;;;;;10.00;2.17;;;;;;;;;;5112490;28;20296;-79
2023/01/03 10:47:00;;;;;;;7.83;1.73;;;;;;;;;;5113149;28;20325;-78
2023/01/03 10:49:29;;;;;;;12.40;2.50;;;;;;;;;;5112868;28;20735;-79
2023/01/03 10:51:57;;;;;;;7.67;2.10;;;;;;;;;;5112820;28;20202;-79
2023/01/03 10:54:27;;;;;;;7.63;1.77;;;;;;;;;;5112745;28;20225;-79
2023/01/03 10:56:54;;;;;;;7.93;1.80;;;;;;;;;;5112899;28;20629;-79
2023/01/03 10:59:23;;;;;;;9.10;1.90;;;;;;;;;;5112284;28;20190;-79
2023/01/03 11:01:56;;;;;;;9.23;2.17;;;;;;;;;;5112782;28;20205;-79
2023/01/03 11:04:25;;;;;;;6.90;1.50;;;;;;;;;;5112948;28;20198;-79
2023/01/03 11:06:58;;;;;;;10.40;1.97;;;;;;;;;;5112496;28;20304;-79
2023/01/03 11:09:30;;;;;;;8.37;1.93;;;;;;;;;;5112322;28;20225;-79
2023/01/03 11:12:03;;;;;;;5.53;1.67;;;;;;;;;;5112779;28;20206;-78
2023/01/03 11:14:30;;;;;;;9.33;1.70;;;;;;;;;;5112270;28;20236;-78
2023/01/03 11:17:01;;;;;;;7.23;1.73;;;;;;;;;;5111860;28;20658;-79
2023/01/03 11:19:31;;;;;;;10.47;2.03;;;;;;;;;;5112569;28;20232;-79
2023/01/03 11:22:06;;;;;;;9.40;1.57;;;;;;;;;;5112534;28;20288;-79
2023/01/03 11:24:47;;;;;;;9.90;2.00;;;;;;;;;;5111787;28;20227;-79
2023/01/03 11:27:18;;;;;;;5.20;1.60;;;;;;;;;;5112083;28;20256;-79
2023/01/03 11:29:53;;;;;;;7.67;1.80;;;;;;;;;;5112229;28;20239;-79
2023/01/03 11:32:24;;;;;;;8.70;1.93;;;;;;;;;;5112024;28;20216;-78
2023/01/03 11:35:06;;;;;;;7.07;1.60;;;;;;;;;;5112248;28;20228;-79
2023/01/03 11:37:40;;;;;;;8.37;1.77;;;;;;;;;;5108476;28;20240;-80
2023/01/03 11:40:14;;;;;;;8.37;1.70;;;;;;;;;;5112281;28;20229;-79
2023/01/03 11:42:48;;;;;;;10.47;1.73;;;;;;;;;;5111403;28;20235;-79
2023/01/03 11:45:30;;;;;;;10.80;1.93;;;;;;;;;;5111961;28;20225;-78
2023/01/03 11:48:04;;;;;;;5.03;1.13;;;;;;;;;;5112073;28;20327;-79
2023/01/03 11:50:42;;;;;;;6.47;1.50;;;;;;;;;;5111954;28;20612;-80
2023/01/03 11:53:14;;;;;;;5.50;1.40;;;;;;;;;;5111829;28;20252;-79
2023/01/03 11:55:46;;;;;;;7.43;1.70;;;;;;;;;;5112058;28;20225;-79
2023/01/03 11:58:29;;;;;;;6.50;1.27;;;;;;;;;;5111767;28;20205;-79
2023/01/03 12:01:01;;;;;;;6.33;1.40;;;;;;;;;;5111939;28;20228;-79
2023/01/03 12:03:34;;;;;;;7.03;1.63;;;;;;;;;;5111978;28;20225;-79
2023/01/03 12:06:08;;;;;;;7.70;1.63;;;;;;;;;;5111168;28;20240;-79
2023/01/03 12:08:42;;;;;;;11.47;1.70;;;;;;;;;;5111343;28;20194;-79
2023/01/03 12:11:14;;;;;;;5.63;1.40;;;;;;;;;;5111471;28;20550;-79
2023/01/03 12:13:44;;;;;;;7.03;1.77;;;;;;;;;;5111886;28;20232;-79
2023/01/03 12:16:13;;;;;;;6.33;1.50;;;;;;;;;;5111366;28;20205;-80
2023/01/03 12:18:44;;;;;;;9.73;1.90;;;;;;;;;;5111403;28;20238;-79
2023/01/03 12:21:14;;;;;;;6.67;1.73;;;;;;;;;;5111568;28;20204;-80
2023/01/03 12:23:45;;;;;;;10.20;1.70;;;;;;;;;;5111473;28;20242;-79
2023/01/03 12:26:14;;;;;;;8.17;1.80;;;;;;;;;;5111289;28;20290;-79
2023/01/03 12:28:42;;;;;;;7.00;1.63;;;;;;;;;;5111582;28;20201;-78
2023/01/03 12:31:18;;;;;;;8.90;1.67;;;;;;;;;;5111567;28;20254;-79
2023/01/03 12:33:49;;;;;;;10.57;2.00;;;;;;;;;;5111829;28;20204;-80
2023/01/03 12:36:23;;;;;;;6.93;1.70;;;;;;;;;;5113718;28;20229;-79
2023/01/03 12:38:56;;;;;;;4.60;1.33;;;;;;;;;;5115730;28;20190;-79
2023/01/03 12:41:28;;;;;;;7.37;1.90;;;;;;;;;;5114883;28;20292;-79
2023/01/03 12:43:58;;;;;;;10.63;1.60;;;;;;;;;;5115198;28;20678;-79
2023/01/03 12:46:29;;;;;;;5.60;1.80;;;;;;;;;;5115432;28;20348;-80
2023/01/03 12:48:59;;;;;;;6.93;1.60;;;;;;;;;;5115540;28;20564;-79
2023/01/03 12:51:27;;;;;;;8.23;1.40;;;;;;;;;;5115652;28;20233;-79
2023/01/03 12:54:04;;;;;;;10.90;2.00;;;;;;;;;;5115887;28;20198;-79
2023/01/03 12:56:46;;;;;;;6.20;1.77;;;;;;;;;;5115095;28;20250;-79
2023/01/03 12:59:22;;;;;;;7.97;1.90;;;;;;;;;;5112012;28;20198;-80
2023/01/03 13:01:52;;;;;;;9.60;1.67;;;;;;;;;;5115596;28;20265;-79
2023/01/03 13:04:22;;;;;;;7.93;2.00;;;;;;;;;;5115130;28;20194;-79
2023/01/03 13:06:51;;;;;;;6.23;1.83;;;;;;;;;;5114886;28;20785;-79
2023/01/03 13:09:22;;;;;;;9.20;1.87;;;;;;;;;;5114745;28;20202;-79
2023/01/03 13:11:51;;;;;;;10.13;1.87;;;;;;;;;;5115107;28;20240;-78
2023/01/03 13:14:20;;;;;;;8.87;2.20;;;;;;;;;;5114975;28;20251;-79
2023/01/03 13:16:48;;;;;;;6.73;1.33;;;;;;;;;;5114786;28;20239;-79
2023/01/03 13:19:30;;;;;;;7.37;1.83;;;;;;;;;;5114537;28;20573;-79
2023/01/03 13:22:05;;;;;;;7.97;1.97;;;;;;;;;;5114314;28;20201;-80
2023/01/03 13:24:44;;;;;;;8.60;1.83;;;;;;;;;;5114109;28;20193;-81
2023/01/03 13:27:26;;;;;;;6.90;2.00;;;;;;;;;;5114299;28;20224;-79
2023/01/03 13:29:58;;;;;;;7.17;2.10;;;;;;;;;;5111163;28;20193;-80
2023/01/03 13:32:26;;;;;;;9.33;2.07;;;;;;;;;;5114630;28;20193;-80
2023/01/03 13:35:11;;;;;;;11.07;2.00;;;;;;;;;;5114713;28;20656;-79
2023/01/03 13:37:49;;;;;;;5.37;1.60;;;;;;;;;;5114266;28;20570;-79
2023/01/03 13:40:29;;;;;;;8.07;1.70;;;;;;;;;;5114481;28;20197;-79
2023/01/03 13:43:02;;;;;;;7.50;1.40;;;;;;;;;;5114129;28;20197;-79
2023/01/03 13:45:56;;;;;;;6.73;1.37;;;;;;;;;;5114844;28;20204;-79
2023/01/03 13:48:27;;;;;;;8.37;1.33;;;;;;;;;;5114333;28;20261;-79
2023/01/03 13:51:25;;;;;;;7.13;1.50;;;;;;;;;;5114076;28;20229;-80
2023/01/03 13:53:58;;;;;;;6.83;1.60;;;;;;;;;;5113809;28;20670;-79
2023/01/03 13:56:27;;;;;;;8.67;1.47;;;;;;;;;;5114249;28;20302;-77
2023/01/03 13:58:58;;;;;;;6.13;1.30;;;;;;;;;;5114136;28;20226;-77
2023/01/03 14:01:49;;;;;;;5.97;1.50;;;;;;;;;;5113932;28;20197;-80
2023/01/03 14:04:37;;;;;;;9.63;1.47;;;;;;;;;;5089037;28;20221;-80
2023/01/03 14:07:17;;;;;;;9.20;1.80;;;;;;;;;;5113301;28;20312;-80
2023/01/03 14:09:59;;;;;;;8.10;1.43;;;;;;;;;;5113686;28;20285;-77
2023/01/03 14:12:34;;;;;;;6.17;1.50;;;;;;;;;;5113652;28;20221;-79
2023/01/03 14:15:06;;;;;;;6.77;1.50;;;;;;;;;;5113930;28;20216;-80
2023/01/03 14:17:35;;;;;;;4.97;1.37;;;;;;;;;;5113377;28;20236;-81
2023/01/03 14:20:06;;;;;;;6.07;1.40;;;;;;;;;;5113588;28;20746;-80
2023/01/03 14:22:37;;;;;;;10.10;1.60;;;;;;;;;;5113243;28;20296;-80
2023/01/03 14:25:06;;;;;;;7.00;1.37;;;;;;;;;;5113696;28;20205;-80
2023/01/03 14:27:39;;;;;;;5.03;1.20;;;;;;;;;;5113403;28;20233;-79
2023/01/03 14:30:20;;;;;;;5.17;1.10;;;;;;;;;;5113200;28;20237;-79
2023/01/03 14:32:47;;;;;;;4.60;1.10;;;;;;;;;;5113259;28;20198;-79
2023/01/03 14:35:29;;;;;;;6.47;1.20;;;;;;;;;;5113696;28;20232;-79
2023/01/03 14:37:56;;;;;;;7.37;1.10;;;;;;;;;;5112875;28;20730;-79
2023/01/03 14:40:23;;;;;;;4.33;1.20;;;;;;;;;;5113247;28;20193;-79
2023/01/03 14:42:52;;;;;;;9.27;1.60;;;;;;;;;;5113473;28;20224;-79
2023/01/03 14:45:20;;;;;;;8.43;1.47;;;;;;;;;;5113102;28;20241;-79
2023/01/03 14:47:47;;;;;;;4.73;1.23;;;;;;;;;;5113555;28;20717;-79
2023/01/03 14:50:16;;;;;;;5.87;1.20;;;;;;;;;;5112649;28;20968;-79
2023/01/03 14:52:44;;;;;;;6.50;1.30;;;;;;;;;;5113069;28;20250;-78
2023/01/03 14:55:14;;;;;;;6.53;1.27;;;;;;;;;;5112766;28;20198;-79
2023/01/03 14:57:42;;;;;;;7.70;1.50;;;;;;;;;;5112567;28;20209;-79
2023/01/03 15:00:16;;;;;;;7.70;1.00;;;;;;;;;;5113260;28;20217;-79
2023/01/03 15:02:44;;;;;;;6.97;1.37;;;;;;;;;;5112649;28;20197;-79
2023/01/03 15:05:21;;;;;;;6.93;1.50;;;;;;;;;;5112229;28;20292;-79
2023/01/03 15:07:49;;;;;;;8.37;1.27;;;;;;;;;;5112397;28;20249;-79
2023/01/03 15:10:17;;;;;;;4.53;1.23;;;;;;;;;;5112633;28;20289;-79
2023/01/03 15:12:46;;;;;;;6.87;1.47;;;;;;;;;;5112566;28;20193;-78
2023/01/03 15:15:31;;;;;;;8.13;1.27;;;;;;;;;;5112861;28;20221;-79
2023/01/03 15:18:02;;;;;;;5.97;1.40;;;;;;;;;;5112674;28;20229;-79
2023/01/03 15:20:31;;;;;;;6.83;1.40;;;;;;;;;;5111978;28;20280;-79
2023/01/03 15:22:58;;;;;;;6.50;1.40;;;;;;;;;;5112458;28;20225;-79
2023/01/03 15:25:28;;;;;;;6.77;1.60;;;;;;;;;;5112310;28;20237;-79
2023/01/03 15:27:56;;;;;;;10.07;1.70;;;;;;;;;;5112440;28;20225;-80
2023/01/03 15:30:27;;;;;;;5.77;1.47;;;;;;;;;;5112743;28;20293;-80
2023/01/03 15:32:57;;;;;;;8.03;1.57;;;;;;;;;;5112431;28;20217;-79
2023/01/03 15:35:33;;;;;;;8.13;1.40;;;;;;;;;;5111996;28;20194;-80
2023/01/03 15:38:01;;;;;;;7.70;1.67;;;;;;;;;;5112290;28;20768;-79
2023/01/03 15:40:30;;;;;;;6.40;1.33;;;;;;;;;;5112199;28;20688;-79
2023/01/03 15:45:42;;;;;;;8.10;1.60;;;;;;;;;;5112067;28;20292;-79
2023/01/03 15:48:10;;;;;;;7.23;1.43;;;;;;;;;;5111842;28;20283;-79
2023/01/03 15:50:44;;;;;;;8.60;1.80;;;;;;;;;;5111714;28;20197;-80
2023/01/03 15:53:17;;;;;;;8.30;1.53;;;;;;;;;;5111602;28;20289;-79
2023/01/03 15:55:45;;;;;;;6.20;1.60;;;;;;;;;;5111825;28;20745;-78
2023/01/03 15:58:12;;;;;;;5.80;1.40;;;;;;;;;;5111895;28;20669;-79
2023/01/03 16:00:39;;;;;;;8.67;1.67;;;;;;;;;;5111849;28;20225;-79